createdAt,value
2023-03-18T00:00:13.229Z,99910.09
2023-03-18T00:02:42.053Z,99906.44
2023-03-18T00:05:10.977Z,99908.19
2023-03-18T00:07:37.603Z,99893.28
2023-03-18T00:10:10.114Z,99898.44
2023-03-18T00:12:38.700Z,99911.00
2023-03-18T00:15:11.105Z,99906.88
2023-03-18T00:17:40.021Z,99914.03
2023-03-18T00:20:12.830Z,99911.50
2023-03-18T00:22:41.008Z,99910.41
2023-03-18T00:25:09.450Z,99900.66
2023-03-18T00:27:36.402Z,99909.41
2023-03-18T00:30:05.429Z,99902.13
2023-03-18T00:32:32.835Z,99906.38
2023-03-18T00:35:01.135Z,99913.13
2023-03-18T00:37:30.654Z,99915.13
2023-03-18T00:40:05.012Z,99909.75
2023-03-18T00:42:39.040Z,99915.72
2023-03-18T00:45:08.478Z,99921.94
2023-03-18T00:47:35.813Z,99919.66
2023-03-18T00:50:04.135Z,99932.50
2023-03-18T00:52:32.263Z,99931.38
2023-03-18T00:55:00.556Z,99933.47
2023-03-18T00:57:29.415Z,99939.81
2023-03-18T00:59:57.010Z,99934.53
2023-03-18T01:02:24.832Z,99929.13
2023-03-18T01:04:52.091Z,99925.50
2023-03-18T01:07:19.405Z,99926.19
2023-03-18T01:09:48.041Z,99919.16
2023-03-18T01:12:15.082Z,99916.03
2023-03-18T01:14:42.993Z,99912.97
2023-03-18T01:17:09.609Z,99913.31
2023-03-18T01:19:37.293Z,99915.28
2023-03-18T01:22:04.646Z,99922.56
2023-03-18T01:24:36.686Z,99907.22
2023-03-18T01:27:04.117Z,99908.34
2023-03-18T01:29:31.029Z,99910.84
2023-03-18T01:31:57.922Z,99905.22
2023-03-18T01:34:25.037Z,99917.47
2023-03-18T01:36:52.312Z,99923.81
2023-03-18T01:39:21.454Z,99930.19
2023-03-18T01:41:48.766Z,99916.22
2023-03-18T01:44:23.165Z,99918.97
2023-03-18T01:46:53.201Z,99926.03
2023-03-18T01:49:31.337Z,99919.22
2023-03-18T01:52:03.601Z,99915.34
2023-03-18T01:54:34.590Z,99922.94
2023-03-18T01:57:03.503Z,99925.16
2023-03-18T01:59:33.645Z,99919.59
2023-03-18T02:02:10.219Z,99928.47
2023-03-18T02:04:50.319Z,99934.09
2023-03-18T02:07:23.105Z,99934.63
2023-03-18T02:09:50.871Z,99940.94
2023-03-18T02:12:24.157Z,99937.75
2023-03-18T02:14:53.209Z,99938.72
2023-03-18T02:17:24.669Z,99941.22
2023-03-18T02:20:00.558Z,99942.06
2023-03-18T02:22:39.649Z,99943.63
2023-03-18T02:25:45.397Z,99937.44
2023-03-18T02:28:20.147Z,99932.63
2023-03-18T02:30:51.031Z,99931.34
2023-03-18T02:33:21.131Z,99926.50
2023-03-18T02:35:52.983Z,99930.13
2023-03-18T02:38:20.047Z,99932.31
2023-03-18T02:40:48.108Z,99921.56
2023-03-18T02:43:24.385Z,99929.56
2023-03-18T02:46:20.158Z,99927.56
2023-03-18T02:48:49.737Z,99930.66
2023-03-18T02:51:17.382Z,99941.56
2023-03-18T02:53:45.116Z,99938.44
2023-03-18T02:56:12.257Z,99935.13
2023-03-18T02:58:41.100Z,99932.38
2023-03-18T03:01:09.311Z,99935.72
2023-03-18T03:03:37.104Z,99925.38
2023-03-18T03:06:04.329Z,99929.78
2023-03-18T03:08:31.768Z,99934.00
2023-03-18T03:10:58.301Z,99934.81
2023-03-18T03:13:26.561Z,99940.50
2023-03-18T03:15:54.041Z,99939.09
2023-03-18T03:18:21.495Z,99937.44
2023-03-18T03:20:50.657Z,99941.59
2023-03-18T03:23:21.021Z,99945.38
2023-03-18T03:25:49.193Z,99952.09
2023-03-18T03:28:16.972Z,99951.56
2023-03-18T03:30:45.289Z,99962.22
2023-03-18T03:33:12.042Z,99953.16
2023-03-18T03:35:40.430Z,99963.19
2023-03-18T03:38:07.153Z,99967.97
2023-03-18T03:40:34.193Z,99954.03
2023-03-18T03:43:01.059Z,99958.31
2023-03-18T03:45:27.917Z,99962.28
2023-03-18T03:47:54.546Z,99958.41
2023-03-18T03:50:21.762Z,99956.41
2023-03-18T03:52:48.411Z,99957.81
2023-03-18T03:55:18.116Z,99954.78
2023-03-18T03:57:45.810Z,99948.63
2023-03-18T04:00:16.553Z,99957.31
2023-03-18T04:02:49.126Z,99961.22
2023-03-18T04:05:18.385Z,99966.16
2023-03-18T04:07:46.412Z,99974.56
2023-03-18T04:10:16.373Z,99974.59
2023-03-18T04:12:45.754Z,99975.66
2023-03-18T04:15:14.638Z,99982.66
2023-03-18T04:17:42.768Z,99979.44
2023-03-18T04:20:10.677Z,99986.16
2023-03-18T04:22:37.710Z,99987.78
2023-03-18T04:25:06.777Z,99983.63
2023-03-18T04:27:34.189Z,99989.78
2023-03-18T04:30:08.516Z,99989.84
2023-03-18T04:32:43.780Z,99985.63
2023-03-18T04:35:11.099Z,100001.38
2023-03-18T04:37:38.342Z,100007.50
2023-03-18T04:40:06.729Z,99999.06
2023-03-18T04:42:33.781Z,99994.38
2023-03-18T04:45:01.726Z,99991.38
2023-03-18T04:47:28.473Z,99994.72
2023-03-18T04:49:55.049Z,100003.09
2023-03-18T04:52:21.910Z,99998.66
2023-03-18T04:54:48.742Z,100005.38
2023-03-18T04:57:16.598Z,100010.63
2023-03-18T04:59:49.028Z,100009.25
2023-03-18T05:02:15.609Z,100010.63
2023-03-18T05:04:42.700Z,100009.31
2023-03-18T05:07:14.469Z,99995.31
2023-03-18T05:09:43.817Z,100003.72
2023-03-18T05:12:16.102Z,100003.09
2023-03-18T05:14:43.793Z,100005.63
2023-03-18T05:17:15.564Z,100010.13
2023-03-18T05:19:48.619Z,100009.84
2023-03-18T05:22:20.971Z,100008.13
2023-03-18T05:24:51.408Z,100009.56
2023-03-18T05:27:20.073Z,100021.03
2023-03-18T05:29:55.996Z,100020.16
2023-03-18T05:32:29.421Z,100011.78
2023-03-18T05:35:01.070Z,100022.03
2023-03-18T05:37:28.800Z,100022.06
2023-03-18T05:40:09.923Z,100019.81
2023-03-18T05:42:49.408Z,100023.22
2023-03-18T05:45:22.699Z,100027.09
2023-03-18T05:47:54.312Z,100037.19
2023-03-18T05:50:36.599Z,100032.41
2023-03-18T05:53:06.677Z,100030.16
2023-03-18T05:55:37.391Z,100036.66
2023-03-18T05:58:04.214Z,100031.34
2023-03-18T06:00:32.625Z,100037.53
2023-03-18T06:03:01.786Z,100038.97
2023-03-18T06:05:29.657Z,100044.84
2023-03-18T06:07:56.692Z,100039.81
2023-03-18T06:10:25.175Z,100049.34
2023-03-18T06:12:52.537Z,100049.03
2023-03-18T06:15:21.132Z,100051.84
2023-03-18T06:17:48.827Z,100043.47
2023-03-18T06:20:18.538Z,100047.09
2023-03-18T06:22:49.448Z,100051.00
2023-03-18T06:25:18.802Z,100051.25
2023-03-18T06:27:46.606Z,100054.06
2023-03-18T06:30:15.345Z,100054.66
2023-03-18T06:32:42.768Z,100061.91
2023-03-18T06:35:10.861Z,100062.44
2023-03-18T06:37:39.058Z,100064.19
2023-03-18T06:40:08.173Z,100063.34
2023-03-18T06:42:34.882Z,100066.13
2023-03-18T06:45:12.569Z,100073.13
2023-03-18T06:47:46.678Z,100075.63
2023-03-18T06:50:13.606Z,100085.47
2023-03-18T06:52:40.433Z,100086.53
2023-03-18T06:55:13.191Z,100082.06
2023-03-18T06:57:42.644Z,100086.84
2023-03-18T07:00:10.930Z,100091.59
2023-03-18T07:02:39.749Z,100092.69
2023-03-18T07:05:08.544Z,100093.53
2023-03-18T07:07:37.665Z,100091.03
2023-03-18T07:10:19.316Z,100088.22
2023-03-18T07:12:47.820Z,100090.16
2023-03-18T07:15:19.829Z,100087.34
2023-03-18T07:17:46.488Z,100098.25
2023-03-18T07:20:15.171Z,100100.53
2023-03-18T07:22:47.398Z,100092.66
2023-03-18T07:25:14.102Z,100105.81
2023-03-18T07:27:42.278Z,100107.25
2023-03-18T07:30:09.939Z,100112.22
2023-03-18T07:32:38.324Z,100111.47
2023-03-18T07:35:06.031Z,100110.91
2023-03-18T07:37:33.426Z,100117.34
2023-03-18T07:40:00.329Z,100124.56
2023-03-18T07:42:27.018Z,100122.38
2023-03-18T07:44:53.705Z,100131.31
2023-03-18T07:47:20.861Z,100127.09
2023-03-18T07:49:47.609Z,100128.53
2023-03-18T07:52:14.548Z,100127.38
2023-03-18T07:54:41.634Z,100135.75
2023-03-18T07:57:08.384Z,100133.81
2023-03-18T07:59:35.170Z,100135.75
2023-03-18T08:02:02.440Z,100139.69
2023-03-18T08:04:29.757Z,100130.72
2023-03-18T08:06:57.862Z,100144.44
2023-03-18T08:09:24.793Z,100133.81
2023-03-18T08:11:51.388Z,100139.66
2023-03-18T08:14:18.010Z,100147.72
2023-03-18T08:16:44.826Z,100146.78
2023-03-18T08:19:11.906Z,100151.84
2023-03-18T08:21:39.666Z,100141.81
2023-03-18T08:24:06.773Z,100150.78
2023-03-18T08:26:33.249Z,100146.47
2023-03-18T08:28:59.784Z,100156.38
2023-03-18T08:31:26.606Z,100157.81
2023-03-18T08:33:55.691Z,100158.59
2023-03-18T08:36:23.377Z,100163.97
2023-03-18T08:38:50.609Z,100167.66
2023-03-18T08:41:17.108Z,100173.78
2023-03-18T08:43:45.013Z,100173.81
2023-03-18T08:46:11.795Z,100174.34
2023-03-18T08:48:38.496Z,100186.16
2023-03-18T08:51:08.205Z,100180.19
2023-03-18T08:53:35.676Z,100184.44
2023-03-18T08:56:03.121Z,100184.41
2023-03-18T08:58:30.092Z,100176.28
2023-03-18T09:00:56.847Z,100188.94
2023-03-18T09:03:24.676Z,100188.16
2023-03-18T09:05:55.591Z,100181.97
2023-03-18T09:08:22.389Z,100188.31
2023-03-18T09:10:52.485Z,100187.69
2023-03-18T09:13:19.821Z,100188.00
2023-03-18T09:15:46.321Z,100187.13
2023-03-18T09:18:16.347Z,100189.47
2023-03-18T09:20:43.218Z,100193.41
2023-03-18T09:23:12.236Z,100183.78
2023-03-18T09:25:40.092Z,100191.94
2023-03-18T09:28:06.648Z,100191.09
2023-03-18T09:30:33.670Z,100194.84
2023-03-18T09:33:01.596Z,100196.41
2023-03-18T09:35:31.720Z,100201.22
2023-03-18T09:37:58.820Z,100198.84
2023-03-18T09:40:38.420Z,100202.53
2023-03-18T09:43:13.552Z,100194.06
2023-03-18T09:45:44.574Z,100196.56
2023-03-18T09:48:48.984Z,100199.88
2023-03-18T09:51:38.536Z,100196.75
2023-03-18T09:54:14.092Z,100195.88
2023-03-18T09:56:40.966Z,100203.34
2023-03-18T09:59:24.877Z,100199.44
2023-03-18T10:01:54.595Z,100210.88
2023-03-18T10:04:28.542Z,100217.25
2023-03-18T10:07:01.915Z,100210.78
2023-03-18T10:09:34.029Z,100210.56
2023-03-18T10:12:16.800Z,100217.06
2023-03-18T10:14:54.625Z,100224.28
2023-03-18T10:17:30.116Z,100220.44
2023-03-18T10:20:01.183Z,100216.03
2023-03-18T10:22:43.599Z,100215.84
2023-03-18T10:25:22.469Z,100225.59
2023-03-18T10:28:04.079Z,100223.19
2023-03-18T10:30:45.156Z,100228.66
2023-03-18T10:33:51.658Z,100220.47
2023-03-18T10:36:23.885Z,100229.25
2023-03-18T10:38:53.362Z,100222.53
2023-03-18T10:41:34.289Z,100226.13
2023-03-18T10:44:16.086Z,100220.53
2023-03-18T10:46:44.215Z,100219.59
2023-03-18T10:49:24.049Z,100217.81
2023-03-18T10:51:55.062Z,100214.97
2023-03-18T10:54:39.007Z,100200.19
2023-03-18T10:57:05.533Z,100214.72
2023-03-18T10:59:34.421Z,100212.03
2023-03-18T11:02:11.982Z,100198.84
2023-03-18T11:04:49.623Z,100213.81
2023-03-18T11:07:21.516Z,100207.03
2023-03-18T11:09:48.076Z,100210.03
2023-03-18T11:12:19.306Z,100206.56
2023-03-18T11:14:50.426Z,100207.03
2023-03-18T11:17:36.733Z,100212.75
2023-03-18T11:20:10.728Z,100212.88
2023-03-18T11:22:37.888Z,100199.00
2023-03-18T11:25:16.237Z,100201.28
2023-03-18T11:27:47.025Z,100195.41
2023-03-18T11:30:33.624Z,100193.56
2023-03-18T11:33:12.922Z,100195.56
2023-03-18T11:35:44.563Z,100196.53
2023-03-18T11:38:20.038Z,100198.66
2023-03-18T11:40:47.110Z,100201.75
2023-03-18T11:43:19.684Z,100199.94
2023-03-18T11:46:03.135Z,100192.22
2023-03-18T11:48:36.698Z,100201.47
2023-03-18T11:51:28.576Z,100196.28
2023-03-18T11:54:10.478Z,100198.59
2023-03-18T11:56:49.572Z,100197.25
2023-03-18T11:59:43.938Z,100192.25
2023-03-18T12:02:34.097Z,100192.56
2023-03-18T12:05:35.320Z,100184.72
2023-03-18T12:08:27.415Z,100189.63
2023-03-18T12:11:07.350Z,100194.72
2023-03-18T12:13:46.420Z,100192.84
2023-03-18T12:16:36.332Z,100187.41
2023-03-18T12:19:15.150Z,100180.22
2023-03-18T12:21:46.527Z,100189.38
2023-03-18T12:24:41.979Z,100182.28
2023-03-18T12:27:27.324Z,100180.53
2023-03-18T12:30:11.821Z,100180.41
2023-03-18T12:33:04.556Z,100181.94
2023-03-18T12:36:13.102Z,100180.03
2023-03-18T12:39:10.161Z,100185.41
2023-03-18T12:42:08.047Z,100177.91
2023-03-18T12:45:03.730Z,100181.56
2023-03-18T12:47:56.313Z,100182.38
2023-03-18T12:50:43.640Z,100175.91
2023-03-18T12:53:30.943Z,100182.44
2023-03-18T12:56:03.336Z,100174.81
2023-03-18T12:58:39.624Z,100168.16
2023-03-18T13:01:09.619Z,100166.22
2023-03-18T13:03:43.083Z,100160.69
2023-03-18T13:06:29.620Z,100155.06
2023-03-18T13:09:02.143Z,100158.72
2023-03-18T13:11:40.497Z,100163.50
2023-03-18T13:14:17.608Z,100156.84
2023-03-18T13:16:44.578Z,100161.84
2023-03-18T13:19:12.233Z,100152.38
2023-03-18T13:21:48.124Z,100157.16
2023-03-18T13:24:49.809Z,100143.53
2023-03-18T13:27:24.022Z,100151.38
2023-03-18T13:30:01.954Z,100157.25
2023-03-18T13:32:49.113Z,100142.63
2023-03-18T13:35:18.636Z,100146.28
2023-03-18T13:38:09.915Z,100158.31
2023-03-18T13:40:58.132Z,100155.09
2023-03-18T13:43:26.369Z,100149.03
2023-03-18T13:45:54.907Z,100151.34
2023-03-18T13:48:31.923Z,100145.97
2023-03-18T13:50:59.866Z,100146.19
2023-03-18T13:53:32.978Z,100136.69
2023-03-18T13:56:03.564Z,100133.13
2023-03-18T13:58:35.775Z,100136.91
2023-03-18T14:01:28.513Z,100139.78
2023-03-18T14:04:07.451Z,100131.47
2023-03-18T14:06:51.661Z,100128.91
2023-03-18T14:09:31.448Z,100131.44
2023-03-18T14:12:38.177Z,100126.09
2023-03-18T14:15:12.893Z,100110.19
2023-03-18T14:17:55.474Z,100114.38
2023-03-18T14:20:24.993Z,100116.97
2023-03-18T14:22:53.754Z,100111.56
2023-03-18T14:25:35.349Z,100114.78
2023-03-18T14:28:08.140Z,100112.44
2023-03-18T14:30:34.842Z,100112.00
2023-03-18T14:33:21.835Z,100108.59
2023-03-18T14:35:59.612Z,100112.81
2023-03-18T14:38:34.993Z,100111.00
2023-03-18T14:41:03.360Z,100104.44
2023-03-18T14:43:37.057Z,100101.81
2023-03-18T14:46:08.831Z,100107.19
2023-03-18T14:48:35.679Z,100105.59
2023-03-18T14:51:20.192Z,100112.78
2023-03-18T14:53:52.707Z,100124.72
2023-03-18T14:56:29.855Z,100138.88
2023-03-18T14:58:57.112Z,100152.19
2023-03-18T15:01:32.746Z,100153.66
2023-03-18T15:04:01.677Z,100164.06
2023-03-18T15:06:29.139Z,100177.66
2023-03-18T15:09:16.323Z,100178.00
2023-03-18T15:11:47.464Z,100176.59
2023-03-18T15:14:16.876Z,100149.72
2023-03-18T15:16:49.441Z,100144.66
2023-03-18T15:19:18.265Z,100136.31
2023-03-18T15:21:45.156Z,100124.91
2023-03-18T15:24:18.524Z,100129.50
2023-03-18T15:26:45.593Z,100131.78
2023-03-18T15:29:33.636Z,100123.44
2023-03-18T15:32:29.266Z,100133.09
2023-03-18T15:35:19.141Z,100134.69
2023-03-18T15:37:47.970Z,100131.72
2023-03-18T15:40:29.726Z,100138.97
2023-03-18T15:43:09.592Z,100134.38
2023-03-18T15:45:41.130Z,100143.84
2023-03-18T15:48:21.493Z,100143.19
2023-03-18T15:50:52.853Z,100149.97
2023-03-18T15:53:25.253Z,100142.47
2023-03-18T15:55:58.612Z,100145.22
2023-03-18T15:58:35.454Z,100137.75
2023-03-18T16:01:02.355Z,100145.00
2023-03-18T16:03:33.677Z,100135.00
2023-03-18T16:06:01.983Z,100142.25
2023-03-18T16:08:28.504Z,100135.41
2023-03-18T16:10:57.876Z,100136.16
2023-03-18T16:13:27.804Z,100136.47
2023-03-18T16:15:54.332Z,100142.97
2023-03-18T16:18:21.670Z,100138.44
2023-03-18T16:20:49.121Z,100145.56
2023-03-18T16:23:17.442Z,100140.94
2023-03-18T16:25:47.021Z,100135.34
2023-03-18T16:28:26.284Z,100138.84
2023-03-18T16:30:55.779Z,100144.03
2023-03-18T16:33:23.608Z,100143.66
2023-03-18T16:35:57.012Z,100143.06
2023-03-18T16:38:23.850Z,100145.69
2023-03-18T16:40:52.629Z,100144.09
2023-03-18T16:43:23.729Z,100140.28
2023-03-18T16:45:51.095Z,100145.75
2023-03-18T16:48:21.915Z,100139.53
2023-03-18T16:50:50.463Z,100142.31
2023-03-18T16:53:27.049Z,100142.25
2023-03-18T16:56:17.001Z,100143.41
2023-03-18T16:58:44.512Z,100146.72
2023-03-18T17:01:16.318Z,100154.75
2023-03-18T17:03:43.608Z,100153.00
2023-03-18T17:06:10.193Z,100149.84
2023-03-18T17:08:36.799Z,100144.44
2023-03-18T17:11:04.445Z,100145.44
2023-03-18T17:13:34.201Z,100152.97
2023-03-18T17:16:01.610Z,100151.88
2023-03-18T17:18:28.137Z,100150.84
2023-03-18T17:20:54.745Z,100149.19
2023-03-18T17:23:26.635Z,100150.28
2023-03-18T17:25:59.509Z,100150.72
2023-03-18T17:28:37.320Z,100147.97
2023-03-18T17:31:04.700Z,100149.53
2023-03-18T17:33:35.401Z,100149.72
2023-03-18T17:36:02.130Z,100150.59
2023-03-18T17:38:30.943Z,100152.16
2023-03-18T17:40:59.010Z,100158.13
2023-03-18T17:43:28.277Z,100155.91
2023-03-18T17:45:59.292Z,100152.88
2023-03-18T17:48:31.054Z,100164.31
2023-03-18T17:51:00.794Z,100155.53
2023-03-18T17:53:43.476Z,100161.63
2023-03-18T17:56:13.949Z,100168.53
2023-03-18T17:58:44.437Z,100164.63
2023-03-18T18:01:27.114Z,100163.63
2023-03-18T18:03:58.414Z,100166.78
2023-03-18T18:06:30.566Z,100166.84
2023-03-18T18:09:00.288Z,100173.53
2023-03-18T18:11:32.504Z,100170.75
2023-03-18T18:14:23.369Z,100175.53
2023-03-18T18:16:50.580Z,100172.09
2023-03-18T18:19:17.571Z,100179.97
2023-03-18T18:21:46.162Z,100172.16
2023-03-18T18:24:25.755Z,100176.09
2023-03-18T18:26:52.689Z,100178.75
2023-03-18T18:29:24.525Z,100176.50
2023-03-18T18:31:51.462Z,100174.81
2023-03-18T18:34:18.254Z,100177.44
2023-03-18T18:36:45.023Z,100184.78
2023-03-18T18:39:11.992Z,100184.19
2023-03-18T18:41:38.730Z,100178.50
2023-03-18T18:44:05.393Z,100180.78
2023-03-18T18:46:32.375Z,100182.72
2023-03-18T18:48:58.996Z,100182.84
2023-03-18T18:51:25.876Z,100183.34
2023-03-18T18:53:54.085Z,100190.44
2023-03-18T18:56:35.158Z,100190.84
2023-03-18T18:59:05.594Z,100191.16
2023-03-18T19:01:32.215Z,100196.97
2023-03-18T19:03:58.726Z,100191.47
2023-03-18T19:06:30.795Z,100197.03
2023-03-18T19:09:00.210Z,100187.25
2023-03-18T19:11:27.852Z,100187.91
2023-03-18T19:14:14.419Z,100188.47
2023-03-18T19:16:40.999Z,100194.41
2023-03-18T19:19:13.356Z,100192.13
2023-03-18T19:21:39.839Z,100198.00
2023-03-18T19:24:20.508Z,100194.34
2023-03-18T19:26:47.078Z,100197.09
2023-03-18T19:29:13.664Z,100196.00
2023-03-18T19:31:41.128Z,100200.59
2023-03-18T19:34:16.410Z,100202.59
2023-03-18T19:36:43.854Z,100196.84
2023-03-18T19:39:15.921Z,100199.56
2023-03-18T19:41:44.024Z,100199.69
2023-03-18T19:44:23.190Z,100205.84
2023-03-18T19:46:52.874Z,100203.56
2023-03-18T19:49:24.038Z,100196.63
2023-03-18T19:51:51.565Z,100209.91
2023-03-18T19:54:32.118Z,100212.66
2023-03-18T19:57:02.142Z,100211.25
2023-03-18T19:59:37.457Z,100213.81
2023-03-18T20:02:19.127Z,100212.00
2023-03-18T20:04:47.633Z,100209.75
2023-03-18T20:07:14.169Z,100208.31
2023-03-18T20:09:40.673Z,100215.19
2023-03-18T20:12:34.557Z,100216.78
2023-03-18T20:15:01.138Z,100218.41
2023-03-18T20:17:48.622Z,100218.78
2023-03-18T20:20:23.972Z,100222.91
2023-03-18T20:23:02.730Z,100227.34
2023-03-18T20:25:38.674Z,100232.16
2023-03-18T20:28:06.493Z,100224.78
2023-03-18T20:30:36.531Z,100223.56
2023-03-18T20:33:06.551Z,100229.16
2023-03-18T20:35:39.281Z,100230.50
2023-03-18T20:38:15.994Z,100230.25
2023-03-18T20:40:47.406Z,100231.97
2023-03-18T20:43:19.122Z,100231.97
2023-03-18T20:45:45.754Z,100228.41
2023-03-18T20:48:12.535Z,100227.84
2023-03-18T20:50:39.373Z,100236.44
2023-03-18T20:53:10.792Z,100239.09
2023-03-18T20:55:37.426Z,100240.69
2023-03-18T20:58:04.097Z,100237.16
2023-03-18T21:00:32.983Z,100246.22
2023-03-18T21:03:02.412Z,100250.94
2023-03-18T21:05:28.995Z,100241.88
2023-03-18T21:07:55.800Z,100254.91
2023-03-18T21:10:24.880Z,100244.34
2023-03-18T21:12:52.667Z,100248.91
2023-03-18T21:15:23.397Z,100250.22
2023-03-18T21:17:50.178Z,100248.88
2023-03-18T21:20:22.528Z,100244.81
2023-03-18T21:22:50.661Z,100247.09
2023-03-18T21:25:27.866Z,100249.16
2023-03-18T21:27:54.914Z,100248.91
2023-03-18T21:30:23.703Z,100251.16
2023-03-18T21:32:50.877Z,100253.53
2023-03-18T21:35:18.964Z,100248.13
2023-03-18T21:37:45.634Z,100247.88
2023-03-18T21:40:21.547Z,100253.56
2023-03-18T21:42:49.442Z,100243.06
2023-03-18T21:45:19.361Z,100245.13
2023-03-18T21:47:46.159Z,100239.22
2023-03-18T21:50:19.926Z,100243.50
2023-03-18T21:52:47.627Z,100239.25
2023-03-18T21:55:14.502Z,100236.47
2023-03-18T21:57:41.278Z,100236.06
2023-03-18T22:00:16.016Z,100238.41
2023-03-18T22:02:43.040Z,100243.84
2023-03-18T22:05:21.960Z,100242.34
2023-03-18T22:07:50.766Z,100243.97
2023-03-18T22:10:22.962Z,100238.34
2023-03-18T22:12:50.139Z,100235.56
2023-03-18T22:15:36.727Z,100243.47
2023-03-18T22:18:03.719Z,100241.75
2023-03-18T22:20:30.463Z,100238.44
2023-03-18T22:22:57.008Z,100234.22
2023-03-18T22:25:36.471Z,100241.25
2023-03-18T22:28:03.158Z,100235.22
2023-03-18T22:30:31.790Z,100241.91
2023-03-18T22:32:59.922Z,100234.75
2023-03-18T22:35:29.003Z,100233.91
2023-03-18T22:37:56.081Z,100237.53
2023-03-18T22:40:23.733Z,100248.78
2023-03-18T22:42:53.173Z,100249.28
2023-03-18T22:45:28.371Z,100243.84
2023-03-18T22:48:07.137Z,100236.63
2023-03-18T22:50:34.951Z,100244.19
2023-03-18T22:53:05.802Z,100250.28
2023-03-18T22:55:36.188Z,100243.84
2023-03-18T22:58:02.998Z,100240.59
2023-03-18T23:00:40.758Z,100250.91
2023-03-18T23:03:28.610Z,100237.72
2023-03-18T23:05:56.912Z,100237.59
2023-03-18T23:08:24.034Z,100239.66
2023-03-18T23:10:52.851Z,100245.25
2023-03-18T23:13:37.385Z,100245.91
2023-03-18T23:16:05.980Z,100237.97
2023-03-18T23:18:32.612Z,100236.56
2023-03-18T23:20:59.366Z,100242.13
2023-03-18T23:23:28.104Z,100243.88
2023-03-18T23:25:54.668Z,100245.13
2023-03-18T23:28:21.294Z,100231.63
2023-03-18T23:30:50.369Z,100228.56
2023-03-18T23:33:18.068Z,100226.16
2023-03-18T23:35:45.906Z,100227.22
2023-03-18T23:38:12.509Z,100234.22
2023-03-18T23:40:39.079Z,100221.06
2023-03-18T23:43:06.502Z,100222.06
2023-03-18T23:45:33.449Z,100224.78
2023-03-18T23:48:00.211Z,100236.50
2023-03-18T23:50:26.873Z,100246.44
2023-03-18T23:52:53.387Z,100249.25
2023-03-18T23:55:33.613Z,100249.19
2023-03-18T23:58:06.533Z,100251.00
